Time;durP1;ratioP1;P1;durP2;ratioP2;P2;SDS_P1;SDS_P2;PMS_P1;PMS_P2;Temp;Humidity;BMP_temperature;BMP_pressure;BME280_temperature;BME280_humidity;BME280_pressure;Samples;Min_cycle;Max_cycle;Signal;HPM_P1;HPM_P2
2022/06/28 00:00:29;;;;;;;11.23;9.40;;;12.90;99.90;;;;;;5084793;28;20405;-76
2022/06/28 00:02:55;;;;;;;14.25;9.57;;;12.90;99.90;;;;;;5075445;28;20044;-75
2022/06/28 00:05:21;;;;;;;12.45;9.30;;;12.90;99.90;;;;;;5073832;28;20067;-77
2022/06/28 00:07:47;;;;;;;11.65;9.02;;;12.90;99.90;;;;;;5076507;28;20102;-76
2022/06/28 00:10:15;;;;;;;13.63;9.88;;;12.90;99.90;;;;;;5087592;28;20052;-76
2022/06/28 00:12:41;;;;;;;10.88;9.25;;;13.00;99.90;;;;;;5071356;28;20284;-76
2022/06/28 00:17:55;;;;;;;11.93;8.93;;;13.00;99.90;;;;;;5075590;28;20063;-76
2022/06/28 00:20:21;;;;;;;10.88;8.80;;;13.00;99.90;;;;;;5061892;28;20127;-76
2022/06/28 00:22:47;;;;;;;10.18;8.85;;;13.00;99.90;;;;;;5085823;28;20040;-76
2022/06/28 00:25:13;;;;;;;11.00;9.07;;;13.00;99.90;;;;;;5087461;28;20476;-77
2022/06/28 00:27:39;;;;;;;10.57;8.60;;;13.00;99.90;;;;;;5068273;28;20126;-77
2022/06/28 00:30:06;;;;;;;11.75;8.57;;;13.00;99.90;;;;;;5080636;28;20048;-76
2022/06/28 00:32:32;;;;;;;11.63;8.68;;;13.00;99.90;;;;;;5078886;28;20054;-77
2022/06/28 00:34:59;;;;;;;10.15;8.35;;;13.00;99.90;;;;;;5071534;28;20049;-78
2022/06/28 00:37:25;;;;;;;10.68;8.55;;;12.90;99.90;;;;;;5056724;28;20147;-77
2022/06/28 00:39:51;;;;;;;10.18;8.85;;;12.90;99.90;;;;;;5075764;28;20080;-77
2022/06/28 00:42:17;;;;;;;12.52;8.65;;;12.90;99.90;;;;;;5064587;28;20079;-77
2022/06/28 00:44:43;;;;;;;10.68;8.48;;;12.90;99.90;;;;;;5069731;28;20460;-77
2022/06/28 00:47:09;;;;;;;11.32;9.02;;;12.90;99.90;;;;;;5074437;28;20424;-78
2022/06/28 00:49:40;;;;;;;10.05;8.27;;;12.90;99.90;;;;;;5061084;28;20099;-77
2022/06/28 00:52:07;;;;;;;10.27;8.68;;;12.90;99.90;;;;;;5082460;28;20080;-77
2022/06/28 00:54:33;;;;;;;10.93;8.65;;;12.90;99.90;;;;;;5071784;28;20427;-77
2022/06/28 00:56:59;;;;;;;11.13;8.77;;;12.90;99.90;;;;;;5079929;28;20047;-77
2022/06/28 00:59:24;;;;;;;10.90;8.50;;;13.00;99.90;;;;;;5082876;28;20071;-77
2022/06/28 01:01:50;;;;;;;14.40;8.57;;;13.00;99.90;;;;;;5074148;28;20463;-77
2022/06/28 01:04:16;;;;;;;11.93;8.52;;;13.00;99.90;;;;;;5091975;28;20778;-77
2022/06/28 01:06:42;;;;;;;11.32;8.95;;;12.90;99.90;;;;;;5077346;28;20430;-77
2022/06/28 01:09:08;;;;;;;10.68;9.10;;;12.90;99.90;;;;;;5079249;28;20090;-78
2022/06/28 01:11:34;;;;;;;10.32;8.52;;;12.90;99.90;;;;;;5087403;28;20064;-77
2022/06/28 01:14:03;;;;;;;10.10;8.48;;;12.90;99.90;;;;;;5077446;28;20050;-77
2022/06/28 01:16:29;;;;;;;10.80;8.93;;;12.90;99.90;;;;;;5074832;28;20052;-77
2022/06/28 01:18:56;;;;;;;12.68;9.32;;;12.90;99.90;;;;;;5080004;28;20044;-77
2022/06/28 01:21:26;;;;;;;10.02;8.43;;;12.90;99.90;;;;;;5091511;28;20113;-77
2022/06/28 01:23:52;;;;;;;9.93;8.10;;;12.80;99.90;;;;;;5073320;28;20527;-77
2022/06/28 01:26:21;;;;;;;11.60;8.38;;;12.80;99.90;;;;;;5054319;28;20052;-77
2022/06/28 01:28:51;;;;;;;10.88;8.35;;;12.70;99.90;;;;;;5086804;28;20040;-76
2022/06/28 01:31:18;;;;;;;12.02;8.57;;;12.70;99.90;;;;;;5083581;28;20048;-77
2022/06/28 01:33:44;;;;;;;10.52;8.38;;;12.70;99.90;;;;;;5086602;28;20044;-76
2022/06/28 01:36:11;;;;;;;11.07;7.78;;;12.70;99.90;;;;;;5070911;28;20044;-78
2022/06/28 01:38:38;;;;;;;11.65;8.15;;;12.70;99.90;;;;;;5088730;28;20075;-76
2022/06/28 01:41:05;;;;;;;9.52;8.07;;;12.80;99.90;;;;;;5082988;28;20036;-77
2022/06/28 01:43:32;;;;;;;12.63;8.68;;;12.70;99.90;;;;;;5081255;28;20070;-77
2022/06/28 01:45:59;;;;;;;12.18;8.82;;;12.80;99.90;;;;;;5080140;28;20070;-76
2022/06/28 01:48:26;;;;;;;11.75;8.85;;;12.80;99.90;;;;;;5056727;28;20044;-76
2022/06/28 01:50:54;;;;;;;10.60;8.40;;;12.80;99.90;;;;;;5065543;28;20081;-76
2022/06/28 01:53:21;;;;;;;10.88;8.13;;;12.80;99.90;;;;;;5069518;28;20131;-77
2022/06/28 01:55:47;;;;;;;10.88;8.52;;;12.80;99.90;;;;;;5052837;28;20412;-78
2022/06/28 01:58:13;;;;;;;10.13;8.32;;;12.80;99.90;;;;;;5082436;28;20071;-77
2022/06/28 02:00:39;;;;;;;10.30;8.00;;;12.80;99.90;;;;;;5087077;28;20149;-77
2022/06/28 02:03:05;;;;;;;9.63;7.78;;;12.80;99.90;;;;;;5083761;28;20085;-77
2022/06/28 02:05:32;;;;;;;9.65;7.88;;;12.70;99.90;;;;;;5071722;28;20044;-78
2022/06/28 02:07:58;;;;;;;11.30;8.50;;;12.70;99.90;;;;;;5073401;28;20066;-77
2022/06/28 02:10:25;;;;;;;11.45;8.68;;;12.70;99.90;;;;;;5061840;28;20076;-78
2022/06/28 02:12:50;;;;;;;11.77;8.10;;;12.70;99.90;;;;;;5073710;28;20092;-79
2022/06/28 02:15:16;;;;;;;12.38;9.38;;;12.70;99.90;;;;;;5086683;28;20430;-77
2022/06/28 02:17:43;;;;;;;11.13;8.57;;;12.70;99.90;;;;;;5071967;28;20436;-78
2022/06/28 02:20:09;;;;;;;12.68;8.80;;;12.80;99.90;;;;;;5054194;28;20047;-79
2022/06/28 02:22:35;;;;;;;12.90;8.23;;;12.80;99.90;;;;;;5064222;28;20056;-77
2022/06/28 02:25:01;;;;;;;10.48;8.20;;;12.80;99.90;;;;;;5070284;28;20045;-77
2022/06/28 02:27:27;;;;;;;10.45;7.95;;;12.80;99.90;;;;;;5056702;28;20044;-76
2022/06/28 02:29:52;;;;;;;11.35;7.82;;;12.70;99.90;;;;;;5058095;28;20036;-77
2022/06/28 02:32:19;;;;;;;10.43;8.15;;;12.70;99.90;;;;;;5088255;28;20124;-77
2022/06/28 02:40:23;;;;;;;12.30;8.90;;;12.70;99.90;;;;;;5073916;28;20102;-77
2022/06/28 02:42:57;;;;;;;13.07;9.20;;;12.70;99.90;;;;;;5090284;28;20047;-77
2022/06/28 02:45:24;;;;;;;10.82;9.63;;;12.70;99.90;;;;;;5041894;28;20058;-77
2022/06/28 02:47:50;;;;;;;12.57;9.75;;;12.80;99.90;;;;;;5085170;28;20047;-77
2022/06/28 02:50:17;;;;;;;12.18;9.02;;;12.80;99.90;;;;;;5088894;28;20044;-77
2022/06/28 02:52:43;;;;;;;12.20;9.18;;;12.80;99.90;;;;;;5085098;28;20510;-77
2022/06/28 02:55:09;;;;;;;11.48;9.45;;;12.90;99.90;;;;;;5075454;28;20051;-77
2022/06/28 02:57:36;;;;;;;13.05;9.57;;;12.90;99.90;;;;;;5086838;28;20082;-77
2022/06/28 03:00:07;;;;;;;13.85;10.13;;;12.90;99.90;;;;;;5089158;28;20448;-77
2022/06/28 03:02:40;;;;;;;12.23;9.05;;;12.90;99.90;;;;;;5073593;28;20051;-77
2022/06/28 03:05:08;;;;;;;13.57;9.82;;;13.00;99.90;;;;;;5072483;28;20139;-77
2022/06/28 03:07:34;;;;;;;12.50;9.32;;;13.00;99.90;;;;;;5089763;28;20156;-76
2022/06/28 03:10:00;;;;;;;13.15;8.90;;;13.10;99.90;;;;;;5080873;28;20053;-78
2022/06/28 03:12:26;;;;;;;14.02;9.77;;;13.10;99.90;;;;;;5088132;28;20135;-76
2022/06/28 03:14:52;;;;;;;16.35;10.35;;;13.10;99.90;;;;;;5090018;28;20179;-77
2022/06/28 03:17:18;;;;;;;12.52;9.60;;;13.10;99.90;;;;;;5079647;28;20053;-77
2022/06/28 03:19:43;;;;;;;13.63;10.23;;;13.10;99.90;;;;;;5058182;28;20056;-77
2022/06/28 03:22:09;;;;;;;13.50;10.57;;;13.10;99.90;;;;;;5074885;28;20287;-77
2022/06/28 03:24:35;;;;;;;13.55;10.45;;;13.10;99.90;;;;;;5079527;28;20044;-77
2022/06/28 03:27:01;;;;;;;12.68;10.07;;;13.10;99.90;;;;;;5064711;28;20351;-77
2022/06/28 03:29:27;;;;;;;12.95;10.05;;;13.10;99.90;;;;;;5083672;28;20063;-77
2022/06/28 03:31:53;;;;;;;13.32;10.27;;;13.10;99.90;;;;;;5083520;28;20399;-77
2022/06/28 03:34:19;;;;;;;12.52;9.98;;;13.10;99.90;;;;;;5083266;28;20071;-76
2022/06/28 03:36:46;;;;;;;14.25;10.73;;;13.10;99.90;;;;;;5089040;28;20056;-77
2022/06/28 03:39:12;;;;;;;14.48;10.15;;;13.10;99.90;;;;;;5087057;28;20180;-76
2022/06/28 03:41:38;;;;;;;13.32;10.45;;;13.10;99.90;;;;;;5084845;28;20051;-77
2022/06/28 03:44:03;;;;;;;12.23;9.82;;;13.00;99.90;;;;;;5085001;28;20044;-78
2022/06/28 03:46:29;;;;;;;13.50;10.40;;;13.10;99.90;;;;;;5072361;28;20220;-77
2022/06/28 03:48:55;;;;;;;13.60;10.48;;;13.00;99.90;;;;;;5083601;28;20052;-77
2022/06/28 03:51:21;;;;;;;14.60;10.57;;;13.00;99.90;;;;;;5082721;28;20066;-77
2022/06/28 03:53:46;;;;;;;14.57;10.43;;;13.00;99.90;;;;;;5075200;28;20071;-76
2022/06/28 03:56:12;;;;;;;13.90;10.40;;;13.00;99.90;;;;;;5056761;28;20040;-77
2022/06/28 03:58:39;;;;;;;13.40;10.70;;;12.80;99.90;;;;;;5080867;28;20519;-77
2022/06/28 04:01:04;;;;;;;15.20;10.93;;;12.80;99.90;;;;;;5081003;28;20045;-77
2022/06/28 04:03:30;;;;;;;14.40;10.13;;;12.80;99.90;;;;;;5079343;28;20036;-77
2022/06/28 04:05:56;;;;;;;13.98;10.25;;;12.80;99.90;;;;;;5061977;28;20044;-79
2022/06/28 04:08:21;;;;;;;15.00;10.75;;;12.80;99.90;;;;;;5078027;28;20082;-77
2022/06/28 04:10:48;;;;;;;13.18;10.45;;;12.80;99.90;;;;;;5080548;28;20423;-79
2022/06/28 04:13:14;;;;;;;13.57;10.50;;;12.80;99.90;;;;;;5082366;28;20048;-78
2022/06/28 04:15:39;;;;;;;13.02;10.43;;;12.90;99.90;;;;;;5072084;28;20135;-77
2022/06/28 04:18:06;;;;;;;16.33;10.55;;;12.90;99.90;;;;;;5070039;28;20068;-77
2022/06/28 04:20:33;;;;;;;14.68;11.25;;;12.90;99.90;;;;;;5080435;28;20130;-78
2022/06/28 04:22:59;;;;;;;14.77;11.50;;;12.90;99.90;;;;;;5082509;28;20392;-78
2022/06/28 04:25:25;;;;;;;15.35;11.43;;;12.90;99.90;;;;;;5089577;28;20051;-79
2022/06/28 04:27:56;;;;;;;13.95;10.85;;;13.00;99.90;;;;;;5075479;28;20488;-79
2022/06/28 04:30:22;;;;;;;14.85;11.18;;;13.00;99.90;;;;;;5086068;28;20094;-79
2022/06/28 04:32:48;;;;;;;14.32;11.27;;;13.10;99.90;;;;;;5082531;28;20523;-77
2022/06/28 04:35:14;;;;;;;14.88;11.23;;;13.10;99.90;;;;;;5084295;28;20084;-79
2022/06/28 04:37:40;;;;;;;14.88;10.70;;;13.10;99.90;;;;;;5084225;28;20122;-77
2022/06/28 04:40:06;;;;;;;15.60;11.27;;;13.20;99.90;;;;;;5073894;28;20040;-78
2022/06/28 04:42:31;;;;;;;16.17;11.18;;;13.20;99.90;;;;;;5078257;28;20100;-77
2022/06/28 04:44:57;;;;;;;14.57;11.23;;;13.30;99.90;;;;;;5059172;28;20041;-78
2022/06/28 04:47:22;;;;;;;16.08;11.35;;;13.40;99.90;;;;;;5057540;28;20125;-78
2022/06/28 04:49:48;;;;;;;14.07;10.75;;;13.40;99.90;;;;;;5077079;28;20056;-77
2022/06/28 04:52:14;;;;;;;15.80;10.77;;;13.50;99.90;;;;;;5087429;28;20048;-77
2022/06/28 04:54:39;;;;;;;13.90;10.38;;;13.50;99.90;;;;;;5059461;28;20055;-76
2022/06/28 04:57:05;;;;;;;13.48;10.45;;;13.60;99.90;;;;;;5081591;28;20053;-77
2022/06/28 04:59:31;;;;;;;14.25;9.77;;;13.70;99.90;;;;;;5076376;28;20063;-77
2022/06/28 05:01:56;;;;;;;13.15;9.20;;;13.70;99.90;;;;;;5079672;28;20044;-78
2022/06/28 05:04:22;;;;;;;12.00;9.85;;;13.80;99.90;;;;;;5078478;28;20052;-78
2022/06/28 05:06:48;;;;;;;13.27;9.27;;;13.90;99.90;;;;;;5064437;28;20492;-78
2022/06/28 05:09:13;;;;;;;11.43;8.98;;;13.90;99.90;;;;;;5085997;28;20071;-77
2022/06/28 05:11:39;;;;;;;12.73;9.88;;;14.00;99.90;;;;;;5079013;28;20060;-77
2022/06/28 05:14:06;;;;;;;12.60;9.10;;;14.10;99.90;;;;;;5080760;28;20044;-78
2022/06/28 05:16:32;;;;;;;11.27;9.10;;;14.10;99.90;;;;;;5056536;28;20052;-78
2022/06/28 05:18:58;;;;;;;10.68;8.43;;;14.20;99.90;;;;;;5057587;28;20098;-76
2022/06/28 05:21:23;;;;;;;12.07;9.00;;;14.30;99.90;;;;;;5070960;28;20052;-77
2022/06/28 05:23:49;;;;;;;10.32;7.80;;;14.30;99.90;;;;;;5071845;28;20053;-77
2022/06/28 05:26:15;;;;;;;13.60;9.15;;;14.40;99.90;;;;;;5061907;28;20473;-78
2022/06/28 05:28:40;;;;;;;12.07;8.85;;;14.40;99.90;;;;;;5087269;28;20048;-77
2022/06/28 05:31:06;;;;;;;12.57;9.23;;;14.50;99.90;;;;;;5082910;28;20096;-76
2022/06/28 05:33:32;;;;;;;10.75;8.90;;;14.60;99.90;;;;;;5075782;28;20043;-77
2022/06/28 05:35:57;;;;;;;11.43;8.65;;;14.70;99.90;;;;;;5074623;28;20481;-76
2022/06/28 05:38:23;;;;;;;9.52;8.38;;;14.80;99.90;;;;;;5080451;28;20048;-78
2022/06/28 05:40:49;;;;;;;9.73;7.53;;;14.80;99.90;;;;;;5084592;28;20040;-77
2022/06/28 05:43:14;;;;;;;12.93;7.80;;;14.80;99.90;;;;;;5075104;28;20083;-77
2022/06/28 05:45:40;;;;;;;12.52;8.25;;;14.70;99.90;;;;;;5055853;28;20044;-77
2022/06/28 05:48:06;;;;;;;11.93;8.48;;;14.70;99.90;;;;;;5064716;28;20063;-77
2022/06/28 05:50:32;;;;;;;9.95;8.20;;;14.70;99.90;;;;;;5072245;28;20515;-78
2022/06/28 05:52:57;;;;;;;11.40;7.93;;;14.80;99.90;;;;;;5063528;28;20052;-78
2022/06/28 05:55:23;;;;;;;10.93;7.65;;;14.90;99.90;;;;;;5076967;28;20078;-76
2022/06/28 05:57:49;;;;;;;9.60;7.35;;;14.90;99.90;;;;;;5076444;28;20464;-77
2022/06/28 06:00:15;;;;;;;11.40;8.27;;;15.10;99.90;;;;;;5059528;28;20126;-77
2022/06/28 06:02:42;;;;;;;10.20;6.97;;;15.10;99.90;;;;;;5083830;28;20052;-78
2022/06/28 06:05:08;;;;;;;10.20;7.15;;;15.20;99.90;;;;;;5076263;28;20052;-77
2022/06/28 06:07:34;;;;;;;8.20;7.03;;;15.30;99.90;;;;;;5066439;28;20044;-77
2022/06/28 06:10:00;;;;;;;9.25;7.85;;;15.40;99.90;;;;;;5057450;28;20048;-67
2022/06/28 06:12:25;;;;;;;8.88;6.50;;;15.50;99.90;;;;;;5077741;28;20423;-67
2022/06/28 06:14:51;;;;;;;9.90;7.60;;;15.50;99.90;;;;;;5077821;28;20044;-67
2022/06/28 06:17:17;;;;;;;10.35;7.70;;;15.60;99.90;;;;;;5088340;28;20404;-67
2022/06/28 06:19:44;;;;;;;9.88;6.88;;;15.70;99.90;;;;;;5077226;28;20051;-67
2022/06/28 06:22:10;;;;;;;8.32;6.68;;;15.70;99.90;;;;;;5076457;28;20052;-67
2022/06/28 06:24:35;;;;;;;9.88;6.43;;;15.80;99.90;;;;;;5091577;28;20055;-67
2022/06/28 06:27:01;;;;;;;9.90;6.55;;;15.80;99.90;;;;;;5086754;28;20055;-67
2022/06/28 06:29:27;;;;;;;11.55;7.03;;;15.80;99.90;;;;;;5085945;28;20048;-67
2022/06/28 06:31:52;;;;;;;8.57;6.30;;;15.90;99.90;;;;;;5079498;28;20044;-67
2022/06/28 06:34:18;;;;;;;8.85;5.45;;;16.00;99.90;;;;;;5079339;28;20047;-67
2022/06/28 06:36:46;;;;;;;7.35;5.85;;;16.00;99.90;;;;;;5085553;28;20071;-67
2022/06/28 06:39:12;;;;;;;10.63;6.70;;;16.10;99.90;;;;;;5086213;28;20076;-67
2022/06/28 06:41:38;;;;;;;9.25;5.00;;;16.10;99.90;;;;;;5084453;28;20503;-67
2022/06/28 06:44:04;;;;;;;8.90;5.57;;;16.20;99.90;;;;;;5087141;28;20050;-66
2022/06/28 06:46:30;;;;;;;6.75;4.95;;;16.30;99.90;;;;;;5060230;28;20089;-67
2022/06/28 06:48:55;;;;;;;6.50;4.80;;;16.30;99.90;;;;;;5085023;28;20058;-67
2022/06/28 06:51:21;;;;;;;6.80;4.72;;;16.30;99.90;;;;;;5066261;28;20040;-67
2022/06/28 06:53:47;;;;;;;6.85;5.05;;;16.40;99.90;;;;;;5089810;28;20476;-67
2022/06/28 06:56:12;;;;;;;8.80;5.10;;;16.50;99.90;;;;;;5081000;28;20055;-67
2022/06/28 06:58:38;;;;;;;6.05;4.07;;;16.50;99.90;;;;;;5060207;28;20073;-67
2022/06/28 07:01:04;;;;;;;7.40;4.53;;;16.60;99.90;;;;;;5047498;28;20044;-67
2022/06/28 07:03:30;;;;;;;5.93;3.95;;;16.60;99.90;;;;;;5088283;28;20043;-67
2022/06/28 07:05:56;;;;;;;6.28;3.97;;;16.60;99.90;;;;;;5081149;28;20047;-66
2022/06/28 07:08:22;;;;;;;6.40;3.70;;;16.70;99.90;;;;;;5086612;28;20049;-67
2022/06/28 07:10:48;;;;;;;7.65;4.35;;;16.70;99.90;;;;;;5084516;28;20509;-67
2022/06/28 07:13:14;;;;;;;9.88;4.70;;;16.70;99.90;;;;;;5082954;28;20053;-67
2022/06/28 07:15:40;;;;;;;7.00;4.80;;;16.80;99.90;;;;;;5091538;28;20782;-67
2022/06/28 07:18:06;;;;;;;9.02;5.15;;;16.90;99.90;;;;;;5073092;28;20127;-68
2022/06/28 07:20:31;;;;;;;8.10;4.78;;;16.90;99.90;;;;;;5082075;28;20134;-67
2022/06/28 07:22:57;;;;;;;6.35;4.63;;;17.00;99.90;;;;;;5083017;28;20068;-67
2022/06/28 07:25:23;;;;;;;8.27;5.07;;;17.10;99.90;;;;;;5088020;28;20123;-66
2022/06/28 07:27:49;;;;;;;8.27;4.53;;;17.00;99.90;;;;;;5078404;28;20492;-66
2022/06/28 07:30:14;;;;;;;8.60;5.00;;;17.10;99.90;;;;;;5077484;28;20052;-67
2022/06/28 07:32:40;;;;;;;6.90;4.68;;;17.20;99.90;;;;;;5057280;28;20085;-68
2022/06/28 07:35:07;;;;;;;8.13;4.93;;;17.10;99.90;;;;;;5082967;28;20079;-68
2022/06/28 07:37:33;;;;;;;8.00;4.63;;;17.00;99.90;;;;;;5075085;28;20059;-68
2022/06/28 07:39:59;;;;;;;7.10;4.10;;;17.00;99.90;;;;;;5073555;28;20051;-68
2022/06/28 07:42:24;;;;;;;10.10;5.03;;;17.10;99.90;;;;;;5091473;28;20059;-67
2022/06/28 07:44:50;;;;;;;9.38;4.43;;;17.10;99.90;;;;;;5082253;28;20048;-67
2022/06/28 07:47:16;;;;;;;8.95;4.40;;;17.30;99.90;;;;;;5081478;28;20040;-67
2022/06/28 07:52:36;;;;;;;5.68;4.70;;;17.60;99.90;;;;;;5082835;28;20075;-67
2022/06/28 07:55:03;;;;;;;6.85;4.82;;;17.70;99.90;;;;;;5087684;28;20385;-67
2022/06/28 07:57:29;;;;;;;6.60;4.15;;;17.70;99.90;;;;;;5081035;28;20617;-67
2022/06/28 07:59:55;;;;;;;7.60;4.07;;;17.80;99.90;;;;;;5072072;28;20048;-66
2022/06/28 08:02:20;;;;;;;7.63;3.42;;;17.80;99.90;;;;;;5071882;28;20048;-67
2022/06/28 08:04:46;;;;;;;7.75;3.50;;;17.60;99.90;;;;;;5078204;28;20045;-67
2022/06/28 08:07:13;;;;;;;5.97;3.08;;;17.50;99.90;;;;;;5071180;28;20403;-66
2022/06/28 08:09:38;;;;;;;9.70;3.20;;;17.40;99.90;;;;;;5071947;28;20067;-67
2022/06/28 08:12:05;;;;;;;5.22;3.38;;;17.20;99.90;;;;;;5071113;28;20485;-68
2022/06/28 08:14:31;;;;;;;6.50;3.60;;;17.20;99.90;;;;;;5073605;28;20135;-68
2022/06/28 08:16:56;;;;;;;6.10;3.63;;;17.30;99.90;;;;;;5053932;28;20610;-67
2022/06/28 08:19:22;;;;;;;4.50;2.38;;;17.60;99.90;;;;;;5082290;28;20050;-66
2022/06/28 08:21:49;;;;;;;8.80;2.85;;;17.80;99.90;;;;;;5091163;28;20082;-67
2022/06/28 08:24:15;;;;;;;6.00;3.53;;;17.80;99.90;;;;;;5071595;28;20056;-66
2022/06/28 08:26:42;;;;;;;6.57;3.67;;;17.70;99.90;;;;;;5084439;28;20072;-67
2022/06/28 08:29:16;;;;;;;4.68;3.40;;;17.90;99.90;;;;;;5084035;28;20404;-67
2022/06/28 08:31:43;;;;;;;4.65;2.90;;;17.90;99.90;;;;;;5088337;28;20525;-67
2022/06/28 08:34:10;;;;;;;4.75;2.10;;;17.90;99.90;;;;;;5076397;28;20086;-67
2022/06/28 08:36:36;;;;;;;5.80;2.63;;;17.90;99.90;;;;;;5082242;28;20040;-68
2022/06/28 08:39:03;;;;;;;3.50;2.28;;;18.00;99.90;;;;;;5091309;28;20048;-66
2022/06/28 08:41:32;;;;;;;5.15;3.10;;;18.10;99.90;;;;;;5088801;28;20093;-66
2022/06/28 08:43:58;;;;;;;5.80;2.25;;;18.30;99.90;;;;;;5076383;28;20076;-67
2022/06/28 08:46:24;;;;;;;3.88;2.75;;;18.40;99.90;;;;;;5076390;28;20083;-66
2022/06/28 08:48:55;;;;;;;3.90;2.15;;;18.40;99.90;;;;;;5076498;28;20040;-67
2022/06/28 08:51:22;;;;;;;3.95;2.40;;;18.50;99.90;;;;;;5081012;28;20067;-67
2022/06/28 08:53:48;;;;;;;5.00;2.22;;;18.60;99.90;;;;;;5079841;28;20048;-67
2022/06/28 08:56:15;;;;;;;2.65;1.30;;;18.80;99.90;;;;;;5070971;28;20109;-68
2022/06/28 08:58:43;;;;;;;2.95;1.13;;;18.70;99.90;;;;;;5073977;28;20052;-67
2022/06/28 09:01:13;;;;;;;4.43;1.92;;;18.60;99.90;;;;;;5079149;28;20040;-68
2022/06/28 09:03:39;;;;;;;4.38;1.60;;;18.60;99.90;;;;;;5077999;28;20087;-67
2022/06/28 09:06:05;;;;;;;3.10;1.48;;;18.80;99.90;;;;;;5091263;28;20052;-67
2022/06/28 09:08:31;;;;;;;2.95;1.20;;;18.80;99.90;;;;;;5082980;28;20490;-67
2022/06/28 09:10:57;;;;;;;5.80;1.63;;;18.80;99.90;;;;;;5070678;28;20059;-67
2022/06/28 09:13:23;;;;;;;3.45;1.20;;;18.90;99.90;;;;;;5070547;28;20045;-67
2022/06/28 09:16:01;;;;;;;4.78;1.40;;;19.00;99.90;;;;;;5056037;28;20090;-67
2022/06/28 09:18:35;;;;;;;3.85;1.52;;;19.10;99.90;;;;;;5070305;28;20558;-68
2022/06/28 09:21:12;;;;;;;2.97;1.08;;;18.90;99.90;;;;;;5071385;28;20046;-69
2022/06/28 09:23:41;;;;;;;2.30;0.85;;;18.70;99.90;;;;;;5074744;28;20044;-66
2022/06/28 09:26:18;;;;;;;3.00;1.40;;;18.60;99.90;;;;;;5074159;28;20048;-67
2022/06/28 09:28:51;;;;;;;3.08;1.20;;;18.70;99.90;;;;;;5087237;28;20105;-67
2022/06/28 09:31:19;;;;;;;5.80;1.77;;;18.80;99.90;;;;;;5072569;28;20048;-67
2022/06/28 09:34:02;;;;;;;3.97;1.63;;;19.00;99.90;;;;;;5071777;28;20041;-67
2022/06/28 09:36:30;;;;;;;4.57;1.27;;;19.10;99.90;;;;;;5070504;28;20079;-69
2022/06/28 09:38:56;;;;;;;1.80;1.02;;;19.20;99.90;;;;;;5081803;28;20048;-66
2022/06/28 09:41:28;;;;;;;4.35;1.40;;;19.20;99.90;;;;;;5092985;28;20063;-67
2022/06/28 09:43:59;;;;;;;3.70;1.90;;;19.00;99.90;;;;;;5074331;28;20105;-67
2022/06/28 09:46:27;;;;;;;4.68;1.75;;;18.90;99.90;;;;;;5074371;28;20484;-68
2022/06/28 09:49:01;;;;;;;2.33;1.25;;;18.90;99.90;;;;;;5074120;28;20068;-68
2022/06/28 09:51:29;;;;;;;3.03;1.20;;;19.10;99.90;;;;;;5082902;28;20056;-67
2022/06/28 09:53:58;;;;;;;3.75;1.42;;;19.20;99.90;;;;;;5077283;28;20408;-67
2022/06/28 09:56:26;;;;;;;2.55;1.20;;;19.20;99.90;;;;;;5056356;28;20493;-67
2022/06/28 09:58:52;;;;;;;4.40;1.98;;;19.30;99.90;;;;;;5074076;28;20044;-68
2022/06/28 10:01:20;;;;;;;2.63;1.20;;;19.40;99.90;;;;;;5073685;28;20045;-67
2022/06/28 10:03:48;;;;;;;3.10;1.27;;;19.40;99.90;;;;;;5074476;28;20378;-68
2022/06/28 10:06:14;;;;;;;2.47;1.58;;;19.50;99.90;;;;;;5082972;28;20045;-67
2022/06/28 10:08:41;;;;;;;3.67;1.50;;;19.60;99.90;;;;;;5073561;28;20064;-67
2022/06/28 10:11:07;;;;;;;3.92;1.25;;;19.60;99.90;;;;;;5073849;28;20079;-69
2022/06/28 10:16:57;;;;;;;2.58;1.08;;;19.60;99.90;;;;;;5073980;28;20515;-67
2022/06/28 10:19:25;;;;;;;2.72;1.40;;;19.60;99.90;;;;;;5072992;28;20048;-67
2022/06/28 10:21:57;;;;;;;2.42;1.17;;;19.60;99.90;;;;;;5076124;28;20056;-67
2022/06/28 10:24:22;;;;;;;2.67;1.10;;;19.70;99.90;;;;;;5072523;28;20044;-67
2022/06/28 10:27:27;;;;;;;2.50;1.00;;;19.70;99.90;;;;;;5073800;28;20040;-66
2022/06/28 10:30:05;;;;;;;3.08;1.00;;;19.70;99.90;;;;;;4986517;28;20050;-67
2022/06/28 10:32:45;;;;;;;3.85;1.10;;;19.80;99.90;;;;;;4991063;28;20050;-67
2022/06/28 10:35:31;;;;;;;3.60;1.27;;;19.80;99.90;;;;;;5045004;28;20060;-68
2022/06/28 10:38:08;;;;;;;2.93;1.23;;;19.80;99.90;;;;;;5072983;28;20043;-67
2022/06/28 10:40:49;;;;;;;2.53;0.90;;;19.80;99.90;;;;;;5056496;28;20778;-67
2022/06/28 10:43:43;;;;;;;5.05;1.25;;;19.90;99.90;;;;;;5077046;28;20052;-66
2022/06/28 10:46:10;;;;;;;2.42;0.90;;;20.00;99.90;;;;;;5083607;28;20411;-67
2022/06/28 10:48:56;;;;;;;2.67;1.10;;;20.00;99.90;;;;;;5080314;28;20431;-67
2022/06/28 10:51:22;;;;;;;1.93;0.90;;;20.00;99.90;;;;;;5073357;28;20055;-67
2022/06/28 10:54:04;;;;;;;2.95;1.15;;;20.10;99.90;;;;;;5072632;28;20036;-67
2022/06/28 10:56:37;;;;;;;2.70;1.10;;;20.20;99.90;;;;;;5057377;28;20075;-67
2022/06/28 10:59:08;;;;;;;1.92;1.15;;;20.30;99.90;;;;;;5087388;28;20054;-68
2022/06/28 11:01:40;;;;;;;3.05;1.00;;;20.30;99.90;;;;;;5072662;28;20144;-67
2022/06/28 11:04:24;;;;;;;2.47;1.23;;;20.30;99.90;;;;;;5073108;28;20499;-67
2022/06/28 11:06:56;;;;;;;5.47;1.40;;;20.40;99.90;;;;;;5073303;28;20049;-67
2022/06/28 11:09:33;;;;;;;4.15;1.10;;;20.40;99.90;;;;;;5071514;28;20496;-67
2022/06/28 11:12:08;;;;;;;2.85;1.00;;;20.30;99.90;;;;;;5081972;28;20501;-67
2022/06/28 11:14:44;;;;;;;3.58;1.20;;;20.10;99.90;;;;;;5077009;28;20048;-67
2022/06/28 11:17:15;;;;;;;;;;;20.20;99.90;;;;;;5072904;28;20052;-67
2022/06/28 11:19:50;;;;;;;4.00;1.30;;;20.30;99.90;;;;;;5086531;28;19931;-67
2022/06/28 11:22:24;;;;;;;3.50;1.20;;;20.40;99.90;;;;;;5089778;28;20052;-68
2022/06/28 11:24:50;;;;;;;1.95;1.08;;;20.30;99.90;;;;;;5054890;28;20290;-68
2022/06/28 11:27:22;;;;;;;2.38;1.30;;;20.10;99.90;;;;;;5076144;28;20051;-67
2022/06/28 11:30:08;;;;;;;2.22;1.10;;;20.10;99.90;;;;;;5072082;28;20063;-68
2022/06/28 11:32:38;;;;;;;3.33;1.35;;;20.20;99.90;;;;;;5072611;28;20502;-68
2022/06/28 11:35:08;;;;;;;3.22;1.27;;;20.40;99.90;;;;;;5074008;28;20134;-69
2022/06/28 11:37:58;;;;;;;2.38;1.05;;;20.40;99.90;;;;;;5072264;28;20067;-68
2022/06/28 11:40:44;;;;;;;4.60;1.20;;;20.40;99.90;;;;;;5072403;28;20132;-67
2022/06/28 11:43:15;;;;;;;2.17;1.10;;;20.20;99.90;;;;;;5072302;28;20083;-67
2022/06/28 11:45:44;;;;;;;2.47;1.20;;;20.00;99.90;;;;;;5080596;28;20520;-67
2022/06/28 11:48:12;;;;;;;2.92;1.15;;;20.00;99.90;;;;;;5053630;28;20508;-68
2022/06/28 11:50:43;;;;;;;2.13;1.00;;;20.10;99.90;;;;;;5072307;28;20079;-68
2022/06/28 11:53:09;;;;;;;2.90;1.00;;;20.20;99.90;;;;;;5077562;28;20056;-68
2022/06/28 11:55:37;;;;;;;3.60;1.15;;;20.10;99.90;;;;;;5086366;28;20392;-68
2022/06/28 11:58:30;;;;;;;4.07;1.00;;;20.10;99.90;;;;;;5063926;28;20052;-68
2022/06/28 12:01:16;;;;;;;2.60;1.17;;;20.10;99.90;;;;;;5050352;28;20389;-67
2022/06/28 12:03:41;;;;;;;2.57;1.10;;;20.20;99.90;;;;;;5075200;28;20046;-67
2022/06/28 12:06:22;;;;;;;1.67;0.90;;;20.30;99.90;;;;;;5073645;28;20040;-67
2022/06/28 12:09:00;;;;;;;2.45;1.00;;;20.30;99.90;;;;;;5064523;28;20487;-68
2022/06/28 12:11:31;;;;;;;2.17;1.15;;;20.30;99.90;;;;;;5082730;28;20063;-68
2022/06/28 12:13:59;;;;;;;3.63;1.13;;;20.50;99.90;;;;;;5074229;28;20494;-67
2022/06/28 12:16:31;;;;;;;1.77;1.05;;;20.50;99.90;;;;;;5084170;28;20037;-68
2022/06/28 12:18:59;;;;;;;2.03;0.80;;;20.70;99.90;;;;;;5081343;28;20447;-69
2022/06/28 12:21:25;;;;;;;2.25;1.10;;;20.80;99.90;;;;;;5081298;28;20497;-68
2022/06/28 12:23:53;;;;;;;3.10;0.95;;;20.80;99.90;;;;;;5070427;28;20384;-68
2022/06/28 12:26:20;;;;;;;2.75;1.17;;;20.90;99.90;;;;;;5078425;28;20047;-68
2022/06/28 12:28:46;;;;;;;2.28;0.75;;;21.00;99.90;;;;;;5075320;28;20044;-68
2022/06/28 12:31:11;;;;;;;2.85;1.08;;;21.10;99.90;;;;;;5081447;28;20048;-67
2022/06/28 12:33:37;;;;;;;3.70;1.00;;;20.90;99.90;;;;;;5080949;28;20036;-67
2022/06/28 12:36:03;;;;;;;2.30;1.00;;;20.80;99.90;;;;;;5087378;28;20054;-67
2022/06/28 12:38:29;;;;;;;2.33;0.93;;;20.90;99.90;;;;;;5085986;28;20079;-67
2022/06/28 12:40:56;;;;;;;2.92;0.95;;;20.90;99.90;;;;;;5091214;28;20086;-66
2022/06/28 12:43:22;;;;;;;2.53;1.20;;;21.00;99.90;;;;;;5080888;28;20052;-67
2022/06/28 12:45:48;;;;;;;3.75;1.27;;;21.10;99.90;;;;;;5080693;28;20090;-67
2022/06/28 12:48:13;;;;;;;4.20;1.13;;;21.20;99.90;;;;;;5075859;28;20079;-68
2022/06/28 12:50:39;;;;;;;3.95;1.10;;;21.30;99.90;;;;;;5064365;28;20052;-71
2022/06/28 12:53:06;;;;;;;2.17;1.00;;;21.30;99.90;;;;;;5076302;28;20455;-69
2022/06/28 12:55:32;;;;;;;2.90;1.10;;;21.30;99.90;;;;;;5074989;28;20084;-69
2022/06/28 12:57:57;;;;;;;2.28;1.05;;;21.20;99.90;;;;;;5080354;28;20114;-67